createdAt,value
2023-01-08T00:02:23.231Z,7.75
2023-01-08T00:07:21.423Z,16.88
2023-01-08T00:12:20.933Z,18.23
2023-01-08T00:17:19.144Z,13.20
2023-01-08T00:22:17.386Z,8.68
2023-01-08T00:27:15.601Z,7.10
2023-01-08T00:32:15.158Z,6.50
2023-01-08T00:37:13.357Z,6.93
2023-01-08T00:42:11.961Z,7.22
2023-01-08T00:47:10.154Z,6.13
2023-01-08T00:52:09.694Z,16.77
2023-01-08T00:57:07.867Z,22.98
2023-01-08T01:02:06.139Z,23.35
2023-01-08T01:07:04.728Z,15.40
2023-01-08T01:12:04.426Z,51.15
2023-01-08T01:17:02.640Z,48.70
2023-01-08T01:22:00.866Z,27.23
2023-01-08T01:26:59.002Z,29.77
2023-01-08T01:31:58.815Z,30.05
2023-01-08T01:36:56.968Z,34.97
2023-01-08T01:41:55.132Z,32.63
2023-01-08T01:46:53.423Z,40.08
2023-01-08T01:51:54.993Z,28.30
2023-01-08T01:56:53.214Z,20.70
2023-01-08T02:01:51.569Z,26.00
2023-01-08T02:06:53.121Z,22.52
2023-01-08T02:12:11.001Z,27.98
2023-01-08T02:17:11.737Z,21.67
2023-01-08T02:22:15.367Z,25.33
2023-01-08T02:27:15.591Z,24.40
2023-01-08T02:32:14.074Z,21.58
2023-01-08T02:37:12.296Z,32.08
2023-01-08T02:42:17.807Z,28.75
2023-01-08T02:47:20.766Z,21.80
2023-01-08T02:52:19.531Z,39.25
2023-01-08T02:57:20.151Z,39.38
2023-01-08T03:02:18.698Z,16.70
2023-01-08T03:07:16.945Z,13.10
2023-01-08T03:12:17.887Z,28.73
2023-01-08T03:17:19.973Z,26.40
2023-01-08T03:22:19.176Z,33.22
2023-01-08T03:27:18.784Z,41.97
2023-01-08T03:32:19.983Z,21.48
2023-01-08T03:37:21.319Z,15.73
2023-01-08T03:42:20.659Z,19.60
2023-01-08T03:47:21.793Z,17.10
2023-01-08T03:52:23.670Z,16.40
2023-01-08T03:57:21.876Z,13.38
2023-01-08T04:02:21.627Z,15.27
2023-01-08T04:07:19.871Z,20.45
2023-01-08T04:12:18.007Z,15.38
2023-01-08T04:17:16.238Z,26.17
2023-01-08T04:22:15.764Z,21.40
2023-01-08T04:27:13.918Z,14.73
2023-01-08T04:32:12.084Z,12.75
2023-01-08T04:37:10.264Z,11.38
2023-01-08T04:42:09.807Z,12.65
2023-01-08T04:47:07.977Z,14.25
2023-01-08T04:52:06.143Z,27.00
2023-01-08T04:57:04.297Z,30.63
2023-01-08T05:02:03.946Z,29.58
2023-01-08T05:07:02.158Z,23.25
2023-01-08T05:12:00.361Z,25.15
2023-01-08T05:16:58.495Z,20.83
2023-01-08T05:21:58.385Z,21.77
2023-01-08T05:26:56.558Z,18.77
2023-01-08T05:31:54.700Z,17.25
2023-01-08T05:36:52.891Z,17.90
2023-01-08T05:41:52.404Z,16.15
2023-01-08T05:46:50.602Z,25.73
2023-01-08T05:51:48.778Z,18.95
2023-01-08T05:56:46.981Z,21.35
2023-01-08T06:01:46.531Z,19.65
2023-01-08T06:06:44.729Z,21.25
2023-01-08T06:11:42.941Z,29.23
2023-01-08T06:16:41.097Z,31.55
2023-01-08T06:21:40.650Z,40.42
2023-01-08T06:26:38.797Z,29.38
2023-01-08T06:31:37.271Z,30.70
2023-01-08T06:36:35.450Z,28.63
2023-01-08T06:41:35.012Z,19.75
2023-01-08T06:46:38.280Z,17.70
2023-01-08T06:51:36.741Z,14.98
2023-01-08T06:56:52.285Z,15.82
2023-01-08T07:01:51.244Z,15.02
2023-01-08T07:06:49.496Z,20.38
2023-01-08T07:11:48.995Z,19.48
2023-01-08T07:16:47.177Z,19.98
2023-01-08T07:21:45.504Z,17.80
2023-01-08T07:26:43.661Z,44.83
2023-01-08T07:31:43.255Z,42.28
2023-01-08T07:36:41.544Z,40.05
2023-01-08T07:41:39.781Z,82.38
2023-01-08T07:46:38.078Z,77.93
2023-01-08T07:51:37.615Z,86.03
2023-01-08T07:56:35.812Z,84.65
2023-01-08T08:01:34.028Z,87.13
2023-01-08T08:06:32.252Z,102.57
2023-01-08T08:11:31.818Z,80.10
2023-01-08T08:16:30.017Z,192.13
2023-01-08T08:21:29.459Z,178.02
2023-01-08T08:26:27.657Z,183.95
2023-01-08T08:31:27.314Z,47.30
2023-01-08T08:36:28.975Z,26.67
2023-01-08T08:41:27.230Z,21.02
2023-01-08T08:46:25.568Z,23.00
2023-01-08T08:51:25.151Z,23.42
2023-01-08T08:56:23.283Z,26.38
2023-01-08T09:01:21.567Z,28.63
2023-01-08T09:06:19.808Z,21.05
2023-01-08T09:11:19.343Z,20.60
2023-01-08T09:16:17.548Z,26.02
2023-01-08T09:21:15.998Z,30.70
2023-01-08T09:26:14.139Z,38.30
2023-01-08T09:31:13.752Z,47.65
2023-01-08T09:36:12.369Z,54.85
2023-01-08T09:41:11.517Z,28.70
2023-01-08T09:46:09.840Z,32.45
2023-01-08T09:51:10.754Z,30.60
2023-01-08T09:56:12.059Z,23.73
2023-01-08T10:01:12.857Z,43.25
2023-01-08T10:06:13.676Z,85.63
2023-01-08T10:11:12.135Z,30.05
2023-01-08T10:16:11.238Z,30.70
2023-01-08T10:21:14.917Z,24.80
2023-01-08T10:26:13.068Z,32.42
2023-01-08T10:31:15.845Z,28.38
2023-01-08T10:36:16.640Z,29.13
2023-01-08T10:41:15.543Z,29.92
2023-01-08T10:46:16.794Z,21.50
2023-01-08T10:51:17.520Z,21.88
2023-01-08T10:56:20.825Z,30.52
2023-01-08T11:01:20.411Z,27.50
2023-01-08T11:06:22.539Z,21.83
2023-01-08T11:11:21.025Z,26.42
2023-01-08T11:16:19.328Z,24.35
2023-01-08T11:21:22.023Z,21.83
2023-01-08T11:26:22.052Z,20.75
2023-01-08T11:31:22.697Z,18.52
2023-01-08T11:36:25.082Z,18.65
2023-01-08T11:41:31.182Z,31.55
2023-01-08T11:46:33.747Z,26.48
2023-01-08T11:51:41.881Z,33.33
2023-01-08T11:56:47.104Z,21.52
2023-01-08T12:01:50.173Z,30.50
2023-01-08T12:06:53.412Z,19.67
2023-01-08T12:11:54.521Z,23.40
2023-01-08T12:17:02.016Z,15.35
2023-01-08T12:22:08.661Z,20.85
2023-01-08T12:27:10.239Z,29.38
2023-01-08T12:32:27.560Z,20.77
2023-01-08T12:37:29.248Z,16.00
2023-01-08T12:42:28.710Z,24.55
2023-01-08T12:47:28.827Z,14.13
2023-01-08T12:52:31.065Z,16.70
2023-01-08T12:57:31.684Z,19.73
2023-01-08T13:02:35.182Z,17.40
2023-01-08T13:07:45.354Z,21.38
2023-01-08T13:12:43.813Z,21.30
2023-01-08T13:17:42.007Z,23.27
2023-01-08T13:22:41.924Z,24.08
2023-01-08T13:27:40.164Z,29.83
2023-01-08T13:32:42.225Z,37.83
2023-01-08T13:37:41.794Z,55.13
2023-01-08T13:42:42.194Z,21.85
2023-01-08T13:47:44.366Z,24.77
2023-01-08T13:52:45.324Z,24.65
2023-01-08T13:57:45.091Z,20.55
2023-01-08T14:02:50.212Z,29.52
2023-01-08T14:07:51.215Z,28.85
2023-01-08T14:12:49.518Z,41.95
2023-01-08T14:17:48.159Z,103.57
2023-01-08T14:22:46.442Z,55.22
2023-01-08T14:27:55.530Z,35.70
2023-01-08T14:32:54.710Z,40.92
2023-01-08T14:37:52.866Z,32.95
2023-01-08T14:42:53.710Z,23.65
2023-01-08T14:47:54.254Z,29.55
2023-01-08T14:52:52.862Z,62.03
2023-01-08T14:57:53.448Z,32.17
2023-01-08T15:02:51.745Z,25.33
2023-01-08T15:07:57.866Z,30.48
2023-01-08T15:13:00.955Z,33.65
2023-01-08T15:17:59.446Z,44.95
2023-01-08T15:22:57.772Z,25.45
2023-01-08T15:27:58.525Z,22.27
2023-01-08T15:33:06.927Z,24.20
2023-01-08T15:38:05.121Z,29.75
2023-01-08T15:43:11.911Z,23.95
2023-01-08T15:48:11.729Z,47.25
2023-01-08T15:53:13.749Z,27.80
2023-01-08T15:58:12.728Z,31.33
2023-01-08T16:03:13.388Z,27.55
2023-01-08T16:08:12.881Z,45.67
2023-01-08T16:13:12.260Z,31.25
2023-01-08T16:18:10.932Z,31.17
2023-01-08T16:23:10.452Z,28.52
2023-01-08T16:28:08.687Z,27.67
2023-01-08T16:33:06.839Z,28.90
2023-01-08T16:38:05.046Z,30.95
2023-01-08T16:43:04.591Z,31.88
2023-01-08T16:48:03.091Z,32.33
2023-01-08T16:53:01.298Z,27.27
2023-01-08T16:57:59.447Z,30.25
2023-01-08T17:02:59.051Z,33.03
2023-01-08T17:07:57.390Z,29.10
2023-01-08T17:12:55.550Z,27.70
2023-01-08T17:17:53.783Z,29.17
2023-01-08T17:22:53.306Z,30.67
2023-01-08T17:27:53.868Z,33.88
2023-01-08T17:32:52.188Z,33.15
2023-01-08T17:37:50.346Z,31.02
2023-01-08T17:42:49.907Z,29.13
2023-01-08T17:47:48.118Z,29.30
2023-01-08T17:52:46.389Z,31.02
2023-01-08T17:57:44.568Z,27.88
2023-01-08T18:02:44.167Z,25.77
2023-01-08T18:07:42.364Z,24.13
2023-01-08T18:12:41.523Z,24.70
2023-01-08T18:17:40.258Z,26.05
2023-01-08T18:22:40.037Z,23.67
2023-01-08T18:27:38.233Z,23.67
2023-01-08T18:32:36.441Z,23.15
2023-01-08T18:37:34.659Z,22.90
2023-01-08T18:42:34.200Z,23.27
2023-01-08T18:47:32.372Z,33.80
2023-01-08T18:52:30.625Z,35.55
2023-01-08T18:57:29.203Z,29.23
2023-01-08T19:02:30.179Z,27.48
2023-01-08T19:07:28.368Z,23.75
2023-01-08T19:12:27.314Z,21.98
2023-01-08T19:17:25.859Z,25.27
2023-01-08T19:22:26.844Z,29.63
2023-01-08T19:27:25.114Z,24.23
2023-01-08T19:32:23.270Z,23.45
2023-01-08T19:37:21.454Z,29.10
2023-01-08T19:42:38.636Z,30.23
2023-01-08T19:47:36.826Z,36.70
2023-01-08T19:52:35.064Z,28.25
2023-01-08T19:57:34.640Z,25.77
2023-01-08T20:02:33.977Z,27.33
2023-01-08T20:07:32.172Z,32.78
2023-01-08T20:12:30.327Z,29.13
2023-01-08T20:17:29.876Z,47.47
2023-01-08T20:22:29.543Z,37.90
2023-01-08T20:27:27.724Z,36.05
2023-01-08T20:32:25.909Z,36.83
2023-01-08T20:37:25.419Z,34.45
2023-01-08T20:42:33.309Z,41.53
2023-01-08T20:47:32.054Z,41.13
2023-01-08T20:52:31.613Z,41.88
2023-01-08T20:57:29.763Z,31.25
2023-01-08T21:02:28.072Z,27.02
2023-01-08T21:07:29.847Z,25.08
2023-01-08T21:12:29.389Z,27.60
2023-01-08T21:17:27.558Z,27.80
2023-01-08T21:22:25.733Z,44.97
2023-01-08T21:27:24.158Z,32.47
2023-01-08T21:32:23.745Z,32.17
2023-01-08T21:37:21.926Z,34.42
2023-01-08T21:42:37.342Z,29.48
2023-01-08T21:47:36.855Z,31.58
2023-01-08T21:52:52.997Z,36.22
2023-01-08T21:57:51.156Z,35.65
2023-01-08T22:02:50.702Z,34.75
2023-01-08T22:07:48.861Z,29.80
2023-01-08T22:12:47.074Z,29.10
2023-01-08T22:17:45.281Z,27.92
2023-01-08T22:22:47.185Z,24.67
2023-01-08T22:27:45.482Z,21.73
2023-01-08T22:32:43.629Z,24.98
2023-01-08T22:37:43.708Z,19.77
2023-01-08T22:42:43.246Z,19.85
2023-01-08T22:47:41.463Z,81.60
2023-01-08T22:52:39.613Z,90.43
2023-01-08T22:57:37.768Z,53.33
2023-01-08T23:02:38.261Z,51.67
2023-01-08T23:07:36.466Z,106.53
2023-01-08T23:12:35.129Z,38.10
2023-01-08T23:17:44.528Z,37.53
2023-01-08T23:22:51.061Z,33.25
2023-01-08T23:27:49.231Z,32.13
2023-01-08T23:32:47.375Z,45.40
2023-01-08T23:37:45.570Z,36.00
2023-01-08T23:42:45.239Z,25.83
2023-01-08T23:47:43.357Z,37.72
2023-01-08T23:52:41.556Z,26.13
2023-01-08T23:57:39.723Z,33.35
